Time;durP1;ratioP1;P1;durP2;ratioP2;P2;SDS_P1;SDS_P2;PMS_P1;PMS_P2;Temp;Humidity;BMP_temperature;BMP_pressure;BME280_temperature;BME280_humidity;BME280_pressure;Samples;Min_cycle;Max_cycle;Signal;HPM_P1;HPM_P2
2022/06/07 00:01:30;;;;;;;31.75;15.30;;;;;;;;;;6209182;28;20128;-60
2022/06/07 00:04:31;;;;;;;25.77;14.57;;;;;;;;;;6201244;28;20053;-62
2022/06/07 00:07:32;;;;;;;25.30;14.15;;;;;;;;;;6200414;28;20091;-61
2022/06/07 00:10:33;;;;;;;24.53;14.03;;;;;;;;;;6199363;28;20115;-61
2022/06/07 00:13:34;;;;;;;28.75;14.80;;;;;;;;;;6199212;28;20561;-61
2022/06/07 00:16:35;;;;;;;30.97;15.10;;;;;;;;;;6198217;28;20100;-61
2022/06/07 00:19:35;;;;;;;27.90;14.43;;;;;;;;;;6197528;28;20057;-61
2022/06/07 00:22:37;;;;;;;34.97;16.47;;;;;;;;;;6201268;28;20157;-61
2022/06/07 00:25:39;;;;;;;27.38;14.98;;;;;;;;;;6201890;28;20050;-61
2022/06/07 00:28:39;;;;;;;30.65;16.00;;;;;;;;;;6197807;28;20053;-61
2022/06/07 00:31:41;;;;;;;44.80;18.70;;;;;;;;;;6199484;28;20046;-61
2022/06/07 00:34:41;;;;;;;35.75;16.85;;;;;;;;;;6198239;28;20046;-59
2022/06/07 00:37:42;;;;;;;41.30;17.15;;;;;;;;;;6193278;28;20053;-60
2022/06/07 00:40:43;;;;;;;36.93;16.60;;;;;;;;;;6199340;28;20171;-61
2022/06/07 00:44:25;;;;;;;27.73;15.43;;;;;;;;;;6206800;28;20050;-61
2022/06/07 00:47:28;;;;;;;27.85;15.15;;;;;;;;;;6149147;28;20451;-61
2022/06/07 00:50:49;;;;;;;30.40;14.85;;;;;;;;;;6146230;28;20070;-61
2022/06/07 00:53:50;;;;;;;29.52;15.00;;;;;;;;;;6198387;28;20042;-61
2022/06/07 00:56:51;;;;;;;29.67;15.20;;;;;;;;;;6196947;28;20276;-61
2022/06/07 00:59:52;;;;;;;28.93;15.23;;;;;;;;;;6201994;28;20134;-61
2022/06/07 01:02:55;;;;;;;30.60;16.10;;;;;;;;;;6196077;28;20068;-61
2022/06/07 01:10:43;;;;;;;33.47;16.30;;;;;;;;;;6197828;28;20054;-60
2022/06/07 01:12:36;;;;;;;37.85;17.25;;;;;;;;;;6196722;28;20443;-61
2022/06/07 01:15:36;;;;;;;48.40;20.07;;;;;;;;;;6195670;28;20050;-61
2022/06/07 01:18:37;;;;;;;41.33;18.93;;;;;;;;;;6197653;28;21087;-60
2022/06/07 01:21:41;;;;;;;45.00;18.97;;;;;;;;;;6196675;28;20077;-61
2022/06/07 01:24:41;;;;;;;47.70;19.65;;;;;;;;;;6205529;28;20556;-61
2022/06/07 01:27:42;;;;;;;40.67;18.52;;;;;;;;;;6212786;28;20046;-60
2022/06/07 01:30:43;;;;;;;43.05;19.58;;;;;;;;;;6208637;28;20042;-61
2022/06/07 01:33:44;;;;;;;43.40;18.88;;;;;;;;;;6201371;28;20042;-61
2022/06/07 01:36:45;;;;;;;44.40;18.88;;;;;;;;;;6197976;28;20151;-60
2022/06/07 01:43:05;;;;;;;40.67;19.38;;;;;;;;;;6201009;28;20065;-61
2022/06/07 01:46:06;;;;;;;42.35;20.38;;;;;;;;;;6203793;28;20176;-59
2022/06/07 01:49:06;;;;;;;43.80;21.23;;;;;;;;;;6202850;28;20393;-60
2022/06/07 01:52:08;;;;;;;37.57;18.93;;;;;;;;;;6203416;28;20438;-61
2022/06/07 01:55:09;;;;;;;39.35;19.77;;;;;;;;;;6207111;28;20080;-61
2022/06/07 01:58:11;;;;;;;42.28;18.80;;;;;;;;;;6204161;28;20390;-60
2022/06/07 02:01:12;;;;;;;42.63;20.30;;;;;;;;;;6206520;28;20800;-60
2022/06/07 02:04:13;;;;;;;44.97;21.17;;;;;;;;;;6200720;28;20046;-61
2022/06/07 02:07:14;;;;;;;42.33;20.13;;;;;;;;;;6199218;28;20604;-61
2022/06/07 02:10:15;;;;;;;43.63;22.35;;;;;;;;;;6200832;28;20038;-61
2022/06/07 02:13:16;;;;;;;37.47;20.17;;;;;;;;;;6205199;28;20192;-61
2022/06/07 02:16:17;;;;;;;40.20;20.13;;;;;;;;;;6210429;28;20077;-61
2022/06/07 02:19:17;;;;;;;45.40;21.08;;;;;;;;;;6209437;28;20679;-61
2022/06/07 02:22:18;;;;;;;40.85;20.63;;;;;;;;;;6197303;28;20049;-61
2022/06/07 02:25:18;;;;;;;46.38;21.45;;;;;;;;;;6192710;28;20038;-61
2022/06/07 02:28:22;;;;;;;41.65;21.27;;;;;;;;;;6194980;28;20089;-60
2022/06/07 02:31:26;;;;;;;45.03;20.42;;;;;;;;;;6193081;28;20046;-61
2022/06/07 02:34:26;;;;;;;47.33;22.75;;;;;;;;;;6195146;28;20096;-60
2022/06/07 02:37:28;;;;;;;41.88;21.10;;;;;;;;;;6195659;28;20043;-61
2022/06/07 02:40:29;;;;;;;46.45;21.40;;;;;;;;;;6196181;28;20073;-60
2022/06/07 02:43:30;;;;;;;46.03;21.27;;;;;;;;;;6194332;28;20853;-62
2022/06/07 02:46:30;;;;;;;43.05;20.35;;;;;;;;;;6201667;28;20097;-61
2022/06/07 02:49:31;;;;;;;47.63;20.70;;;;;;;;;;6202237;28;20046;-61
2022/06/07 02:52:32;;;;;;;40.92;19.67;;;;;;;;;;6198900;28;20379;-60
2022/06/07 02:55:33;;;;;;;38.63;19.53;;;;;;;;;;6199029;28;20050;-60
2022/06/07 02:58:34;;;;;;;43.30;21.38;;;;;;;;;;6199546;28;20101;-60
2022/06/07 03:01:35;;;;;;;36.35;19.02;;;;;;;;;;6200822;28;20074;-60
2022/06/07 03:04:36;;;;;;;40.97;19.38;;;;;;;;;;6201753;28;20424;-60
2022/06/07 03:07:38;;;;;;;41.45;22.92;;;;;;;;;;6201161;28;20045;-60
2022/06/07 03:10:38;;;;;;;43.38;21.60;;;;;;;;;;6201130;28;20217;-61
2022/06/07 03:13:39;;;;;;;46.10;21.13;;;;;;;;;;6211993;28;20062;-60
2022/06/07 03:16:40;;;;;;;46.17;22.90;;;;;;;;;;6199573;28;20168;-60
2022/06/07 03:19:40;;;;;;;50.85;25.42;;;;;;;;;;6202490;28;20180;-60
2022/06/07 03:22:42;;;;;;;51.95;26.33;;;;;;;;;;6201142;28;20074;-60
2022/06/07 03:25:43;;;;;;;42.83;21.70;;;;;;;;;;6205242;28;20589;-60
2022/06/07 03:28:44;;;;;;;39.33;19.70;;;;;;;;;;6207284;28;20046;-60
2022/06/07 03:31:45;;;;;;;41.47;20.63;;;;;;;;;;6202259;28;20489;-58
2022/06/07 03:34:46;;;;;;;45.87;22.43;;;;;;;;;;6197225;28;20045;-59
2022/06/07 03:37:46;;;;;;;44.08;20.15;;;;;;;;;;6200850;28;20144;-60
2022/06/07 03:40:47;;;;;;;60.60;30.70;;;;;;;;;;6196873;28;20092;-60
2022/06/07 03:43:47;;;;;;;49.20;22.13;;;;;;;;;;6197316;28;20045;-60
2022/06/07 03:46:49;;;;;;;48.25;24.95;;;;;;;;;;6203864;28;20064;-60
2022/06/07 03:49:49;;;;;;;50.63;25.50;;;;;;;;;;6213462;28;20038;-60
2022/06/07 03:52:50;;;;;;;52.45;23.48;;;;;;;;;;6214173;28;20606;-60
2022/06/07 03:55:53;;;;;;;53.75;23.88;;;;;;;;;;6215510;28;20050;-60
2022/06/07 03:58:54;;;;;;;48.95;22.95;;;;;;;;;;6215049;28;20073;-61
2022/06/07 04:01:54;;;;;;;48.97;23.38;;;;;;;;;;6216715;28;20053;-60
2022/06/07 04:04:55;;;;;;;57.83;24.50;;;;;;;;;;6199410;28;20092;-60
2022/06/07 04:08:11;;;;;;;51.63;24.38;;;;;;;;;;6211336;28;20180;-60
2022/06/07 04:11:13;;;;;;;51.15;24.73;;;;;;;;;;6215711;28;20066;-61
2022/06/07 04:14:14;;;;;;;61.92;25.85;;;;;;;;;;6213553;28;20046;-60
2022/06/07 04:17:15;;;;;;;57.30;26.35;;;;;;;;;;6202820;28;20105;-60
2022/06/07 04:20:16;;;;;;;63.33;28.60;;;;;;;;;;6199836;28;20085;-59
2022/06/07 04:23:19;;;;;;;60.77;28.10;;;;;;;;;;6196995;28;20088;-60
2022/06/07 04:26:23;;;;;;;65.93;28.90;;;;;;;;;;6198721;28;20058;-60
2022/06/07 04:29:26;;;;;;;62.03;28.23;;;;;;;;;;6202838;28;20043;-60
2022/06/07 04:32:26;;;;;;;59.97;27.02;;;;;;;;;;6199791;28;20068;-59
2022/06/07 04:35:27;;;;;;;65.47;28.13;;;;;;;;;;6203894;28;20038;-61
2022/06/07 04:38:28;;;;;;;60.23;27.37;;;;;;;;;;6196628;28;20072;-60
2022/06/07 04:41:28;;;;;;;57.83;27.17;;;;;;;;;;6195647;28;20046;-60
2022/06/07 04:44:30;;;;;;;60.13;26.85;;;;;;;;;;6192551;28;20440;-61
2022/06/07 04:47:31;;;;;;;;;;;;;;;;;;6195296;28;20575;-59
2022/06/07 04:50:32;;;;;;;55.13;25.13;;;;;;;;;;6194135;28;19926;-60
2022/06/07 04:53:33;;;;;;;58.75;27.00;;;;;;;;;;6200500;28;20148;-61
2022/06/07 04:56:35;;;;;;;57.57;26.23;;;;;;;;;;6216013;28;20049;-60
2022/06/07 04:59:36;;;;;;;53.25;25.38;;;;;;;;;;6200269;28;20078;-61
2022/06/07 05:02:37;;;;;;;54.20;23.80;;;;;;;;;;6199641;28;20096;-60
2022/06/07 05:05:37;;;;;;;47.17;22.37;;;;;;;;;;6197351;28;20042;-61
2022/06/07 05:08:38;;;;;;;50.97;22.50;;;;;;;;;;6198264;28;20069;-61
2022/06/07 05:11:38;;;;;;;42.83;20.50;;;;;;;;;;6194054;28;20730;-61
2022/06/07 05:14:40;;;;;;;38.83;18.00;;;;;;;;;;6196488;28;20048;-61
2022/06/07 05:17:40;;;;;;;39.35;20.23;;;;;;;;;;6199162;28;20050;-61
2022/06/07 05:20:41;;;;;;;39.20;18.77;;;;;;;;;;6195230;28;20145;-61
2022/06/07 05:23:42;;;;;;;40.17;19.90;;;;;;;;;;6196252;28;20508;-60
2022/06/07 05:26:46;;;;;;;37.87;19.47;;;;;;;;;;6199012;28;20517;-61
2022/06/07 05:29:53;;;;;;;37.88;19.30;;;;;;;;;;6197090;28;20069;-60
2022/06/07 05:32:54;;;;;;;40.13;19.25;;;;;;;;;;6201307;28;20053;-61
2022/06/07 05:35:56;;;;;;;34.77;18.83;;;;;;;;;;6204897;28;20050;-61
2022/06/07 05:38:56;;;;;;;;;;;;;;;;;;6207785;28;20037;-61
2022/06/07 05:41:58;;;;;;;37.90;17.73;;;;;;;;;;6214206;28;19956;-61
2022/06/07 05:44:59;;;;;;;;;;;;;;;;;;6207861;28;20050;-61
2022/06/07 05:47:59;;;;;;;34.33;16.60;;;;;;;;;;6198107;28;19948;-61
2022/06/07 05:51:00;;;;;;;30.77;15.77;;;;;;;;;;6197316;28;20054;-61
2022/06/07 05:54:01;;;;;;;33.23;17.30;;;;;;;;;;6194160;28;20076;-61
2022/06/07 05:57:02;;;;;;;44.00;19.83;;;;;;;;;;6205997;28;20044;-61
2022/06/07 06:00:06;;;;;;;37.75;18.67;;;;;;;;;;6210360;28;20046;-60
2022/06/07 06:03:06;;;;;;;41.10;20.30;;;;;;;;;;6209667;28;20103;-61
2022/06/07 06:06:09;;;;;;;39.63;19.33;;;;;;;;;;6212356;28;20049;-61
2022/06/07 06:12:29;;;;;;;46.78;20.10;;;;;;;;;;6213180;28;20049;-66
2022/06/07 06:15:31;;;;;;;39.73;19.80;;;;;;;;;;6212848;28;20489;-63
2022/06/07 06:18:32;;;;;;;39.75;19.98;;;;;;;;;;6203903;28;20041;-61
2022/06/07 06:21:37;;;;;;;39.58;20.27;;;;;;;;;;6204801;28;20042;-60
2022/06/07 06:24:38;;;;;;;37.35;19.70;;;;;;;;;;6202983;28;20057;-60
2022/06/07 06:27:38;;;;;;;38.03;19.63;;;;;;;;;;6199657;28;20128;-61
2022/06/07 06:30:45;;;;;;;34.50;17.80;;;;;;;;;;6198330;28;20508;-61
2022/06/07 06:33:49;;;;;;;44.90;18.67;;;;;;;;;;6202210;28;20046;-60
2022/06/07 06:36:49;;;;;;;37.92;18.80;;;;;;;;;;6197602;28;20112;-55
2022/06/07 06:39:50;;;;;;;32.43;17.93;;;;;;;;;;6199152;28;20042;-60
2022/06/07 06:42:51;;;;;;;32.27;17.57;;;;;;;;;;6193085;28;20387;-60
2022/06/07 06:45:51;;;;;;;33.57;16.67;;;;;;;;;;6192295;28;20394;-61
2022/06/07 06:48:53;;;;;;;32.63;15.70;;;;;;;;;;6193106;28;20038;-61
2022/06/07 06:51:55;;;;;;;28.95;16.23;;;;;;;;;;6194395;28;20137;-60
2022/06/07 06:54:56;;;;;;;36.80;17.42;;;;;;;;;;6195459;28;20073;-60
2022/06/07 06:57:57;;;;;;;29.40;14.93;;;;;;;;;;6191473;28;20378;-60
2022/06/07 07:01:05;;;;;;;27.87;13.97;;;;;;;;;;6192407;28;20054;-59
2022/06/07 07:04:09;;;;;;;23.30;13.70;;;;;;;;;;6195975;28;20053;-60
2022/06/07 07:07:10;;;;;;;25.33;13.45;;;;;;;;;;6194569;28;20042;-60
2022/06/07 07:10:10;;;;;;;29.20;16.30;;;;;;;;;;6191273;28;20153;-61
2022/06/07 07:13:11;;;;;;;30.40;18.33;;;;;;;;;;6192293;28;20073;-60
2022/06/07 07:16:16;;;;;;;26.10;14.10;;;;;;;;;;6193017;28;20050;-61
2022/06/07 07:19:17;;;;;;;34.17;15.20;;;;;;;;;;6190014;28;20231;-61
2022/06/07 07:22:18;;;;;;;25.20;13.70;;;;;;;;;;6193257;28;20402;-60
2022/06/07 07:25:19;;;;;;;24.13;14.45;;;;;;;;;;6195609;28;20069;-61
2022/06/07 07:28:19;;;;;;;23.23;14.03;;;;;;;;;;6207093;28;20049;-60
2022/06/07 07:31:31;;;;;;;37.83;19.27;;;;;;;;;;6217219;28;20060;-60
2022/06/07 07:34:32;;;;;;;54.10;31.58;;;;;;;;;;6200895;28;20413;-60
2022/06/07 07:37:33;;;;;;;38.97;23.53;;;;;;;;;;6211535;28;20073;-60
2022/06/07 07:40:33;;;;;;;30.87;20.23;;;;;;;;;;6197027;28;20826;-60
2022/06/07 07:43:34;;;;;;;30.73;19.37;;;;;;;;;;6198550;28;20053;-60
2022/06/07 07:46:36;;;;;;;36.00;19.63;;;;;;;;;;6198766;28;20135;-60
2022/06/07 07:49:36;;;;;;;32.67;17.23;;;;;;;;;;6197518;28;20504;-60
2022/06/07 07:52:38;;;;;;;33.17;19.17;;;;;;;;;;6199121;28;20054;-61
2022/06/07 07:55:45;;;;;;;;;;;;;;;;;;6197120;28;20072;-62
2022/06/07 07:58:46;;;;;;;31.50;16.63;;;;;;;;;;6196531;28;19934;-60
2022/06/07 08:01:49;;;;;;;51.83;31.80;;;;;;;;;;6199653;28;20192;-60
2022/06/07 08:04:49;;;;;;;27.52;15.65;;;;;;;;;;6197502;28;20699;-59
2022/06/07 08:07:51;;;;;;;26.77;16.17;;;;;;;;;;6199469;28;20092;-60
2022/06/07 08:10:52;;;;;;;34.15;16.27;;;;;;;;;;6197476;28;20072;-59
2022/06/07 08:13:53;;;;;;;36.03;16.77;;;;;;;;;;6198499;28;20046;-59
2022/06/07 08:16:55;;;;;;;30.83;17.90;;;;;;;;;;6196372;28;20475;-58
2022/06/07 08:19:56;;;;;;;31.17;17.30;;;;;;;;;;6199931;28;20058;-60
2022/06/07 08:22:57;;;;;;;31.88;17.63;;;;;;;;;;6199708;28;20046;-59
2022/06/07 08:26:00;;;;;;;31.43;18.63;;;;;;;;;;6196084;28;20046;-59
2022/06/07 08:29:01;;;;;;;32.33;19.50;;;;;;;;;;6198759;28;20047;-60
2022/06/07 08:32:02;;;;;;;;;;;;;;;;;;6199933;28;20081;-59
2022/06/07 08:38:22;;;;;;;28.85;16.98;;;;;;;;;;6203083;28;20045;-60
2022/06/07 08:41:29;;;;;;;27.03;16.33;;;;;;;;;;6196778;28;20100;-59
2022/06/07 08:44:46;;;;;;;25.10;15.00;;;;;;;;;;6201316;28;20049;-60
2022/06/07 08:47:54;;;;;;;29.90;16.40;;;;;;;;;;6195854;28;20048;-59
2022/06/07 08:51:03;;;;;;;25.23;16.30;;;;;;;;;;6199366;28;20121;-59
2022/06/07 08:54:17;;;;;;;27.77;15.73;;;;;;;;;;6194224;28;20108;-59
2022/06/07 08:57:27;;;;;;;26.58;16.15;;;;;;;;;;6207990;28;20108;-59
2022/06/07 09:00:32;;;;;;;24.77;17.00;;;;;;;;;;6206016;28;20136;-60
2022/06/07 09:03:38;;;;;;;24.60;15.82;;;;;;;;;;6198215;28;20442;-59
2022/06/07 09:06:41;;;;;;;22.20;15.05;;;;;;;;;;6197263;28;20504;-58
2022/06/07 09:13:07;;;;;;;21.17;14.45;;;;;;;;;;6194715;28;20145;-59
2022/06/07 09:16:12;;;;;;;20.80;13.82;;;;;;;;;;6197952;28;20081;-59
2022/06/07 09:19:18;;;;;;;21.33;14.50;;;;;;;;;;6197942;28;20066;-59
2022/06/07 09:22:25;;;;;;;19.75;13.90;;;;;;;;;;6198309;28;20124;-60
2022/06/07 09:25:34;;;;;;;19.48;14.20;;;;;;;;;;6208205;28;20046;-59
2022/06/07 09:28:34;;;;;;;18.92;13.60;;;;;;;;;;6211637;28;20100;-59
2022/06/07 09:31:39;;;;;;;18.47;12.83;;;;;;;;;;6198345;28;20045;-59
2022/06/07 09:34:49;;;;;;;20.73;13.27;;;;;;;;;;6211182;28;20383;-59
2022/06/07 09:37:55;;;;;;;23.13;12.68;;;;;;;;;;6210560;28;20116;-59
2022/06/07 09:41:36;;;;;;;19.35;14.15;;;;;;;;;;6197715;28;20073;-59
2022/06/07 09:44:33;;;;;;;;;;;;;;;;;;6199029;28;20053;-60
2022/06/07 09:47:34;;;;;;;17.15;12.55;;;;;;;;;;6206788;28;19922;-59
2022/06/07 09:50:37;;;;;;;19.60;12.90;;;;;;;;;;6212230;28;20124;-59
2022/06/07 09:53:41;;;;;;;20.08;14.07;;;;;;;;;;6209722;28;20465;-59
2022/06/07 09:56:56;;;;;;;20.63;13.70;;;;;;;;;;6214919;28;20038;-59
2022/06/07 10:00:06;;;;;;;23.05;12.20;;;;;;;;;;6212164;28;20500;-59
2022/06/07 10:03:18;;;;;;;20.08;13.35;;;;;;;;;;6199511;28;20065;-59
2022/06/07 10:06:32;;;;;;;18.15;12.82;;;;;;;;;;6208635;28;20042;-59
2022/06/07 10:10:11;;;;;;;18.73;13.50;;;;;;;;;;6196717;28;20050;-60
2022/06/07 10:13:45;;;;;;;19.40;12.93;;;;;;;;;;6197106;28;20038;-59
2022/06/07 10:17:21;;;;;;;18.45;12.98;;;;;;;;;;6195808;28;20054;-57
2022/06/07 10:20:40;;;;;;;20.42;13.55;;;;;;;;;;6199113;28;20078;-59
2022/06/07 10:24:02;;;;;;;17.52;12.70;;;;;;;;;;6206945;28;20088;-59
2022/06/07 10:27:22;;;;;;;;;;;;;;;;;;6207676;28;20144;-59
2022/06/07 10:30:29;;;;;;;17.08;11.65;;;;;;;;;;6201992;28;20396;-59
2022/06/07 10:33:49;;;;;;;19.05;13.02;;;;;;;;;;6204759;28;20494;-59
2022/06/07 10:37:02;;;;;;;17.92;12.82;;;;;;;;;;6199391;28;20038;-59
2022/06/07 10:40:34;;;;;;;17.10;13.07;;;;;;;;;;6195091;28;20410;-58
2022/06/07 10:43:52;;;;;;;17.83;12.50;;;;;;;;;;6202828;28;20497;-58
2022/06/07 10:46:53;;;;;;;19.90;12.27;;;;;;;;;;6200439;28;20136;-60
2022/06/07 10:50:16;;;;;;;19.73;12.47;;;;;;;;;;6205275;28;20413;-59
2022/06/07 10:53:17;;;;;;;18.52;12.25;;;;;;;;;;6196721;28;20069;-59
2022/06/07 10:56:29;;;;;;;19.23;12.50;;;;;;;;;;6205733;28;20132;-60
2022/06/07 10:59:31;;;;;;;15.63;10.77;;;;;;;;;;6207770;28;20034;-59
2022/06/07 11:02:51;;;;;;;17.42;12.02;;;;;;;;;;6205018;28;20140;-59
2022/06/07 11:09:43;;;;;;;13.73;10.02;;;;;;;;;;6213282;28;20046;-59
2022/06/07 11:12:59;;;;;;;19.00;14.27;;;;;;;;;;6212723;28;20286;-60
2022/06/07 11:16:15;;;;;;;16.52;11.10;;;;;;;;;;6212390;28;20141;-59
2022/06/07 11:19:16;;;;;;;18.27;13.25;;;;;;;;;;6214380;28;20459;-60
2022/06/07 11:22:19;;;;;;;14.20;10.03;;;;;;;;;;6213115;28;20134;-60
2022/06/07 11:25:29;;;;;;;13.02;9.63;;;;;;;;;;6209827;28;20107;-60
2022/06/07 11:28:38;;;;;;;11.52;8.60;;;;;;;;;;6210203;28;20134;-59
2022/06/07 11:31:44;;;;;;;11.30;8.88;;;;;;;;;;6201703;28;20073;-60
2022/06/07 11:34:44;;;;;;;10.25;7.60;;;;;;;;;;6203079;28;20385;-60
2022/06/07 11:37:51;;;;;;;11.30;8.70;;;;;;;;;;6207819;28;20050;-60
2022/06/07 11:41:36;;;;;;;11.45;8.15;;;;;;;;;;6203985;28;20062;-60
2022/06/07 11:44:16;;;;;;;14.57;11.65;;;;;;;;;;6203391;28;20060;-60
2022/06/07 11:47:23;;;;;;;19.60;12.67;;;;;;;;;;6212813;28;20584;-59
2022/06/07 11:50:54;;;;;;;16.10;11.00;;;;;;;;;;6199496;28;20074;-60
2022/06/07 11:54:03;;;;;;;10.75;8.10;;;;;;;;;;6192532;28;20420;-59
2022/06/07 11:57:52;;;;;;;10.70;7.85;;;;;;;;;;6206217;28;20073;-59
2022/06/07 12:00:53;;;;;;;12.35;7.20;;;;;;;;;;6204045;28;20057;-59
2022/06/07 12:04:34;;;;;;;11.43;7.83;;;;;;;;;;6208427;28;20116;-59
2022/06/07 12:07:59;;;;;;;10.30;7.38;;;;;;;;;;6202816;28;20783;-60
2022/06/07 12:11:20;;;;;;;10.68;7.10;;;;;;;;;;6203759;28;20076;-59
2022/06/07 12:14:35;;;;;;;11.25;6.95;;;;;;;;;;6198796;28;20201;-59
2022/06/07 12:17:36;;;;;;;9.88;7.15;;;;;;;;;;6197928;28;20057;-60
2022/06/07 12:20:40;;;;;;;12.97;8.33;;;;;;;;;;6209701;28;20084;-59
2022/06/07 12:23:43;;;;;;;10.68;7.47;;;;;;;;;;6203500;28;20046;-59
2022/06/07 12:26:46;;;;;;;11.43;7.70;;;;;;;;;;6203162;28;20046;-59
2022/06/07 12:29:48;;;;;;;9.48;7.10;;;;;;;;;;6211602;28;20054;-59
2022/06/07 12:32:51;;;;;;;10.90;7.65;;;;;;;;;;6204803;28;20031;-59
2022/06/07 12:35:59;;;;;;;9.95;7.22;;;;;;;;;;6201538;28;20042;-59
2022/06/07 12:39:10;;;;;;;10.57;8.15;;;;;;;;;;6198025;28;20034;-60
2022/06/07 12:42:16;;;;;;;12.60;7.60;;;;;;;;;;6208774;28;20828;-59
2022/06/07 12:45:32;;;;;;;12.07;7.93;;;;;;;;;;6201432;28;20108;-60
2022/06/07 12:48:40;;;;;;;9.88;6.38;;;;;;;;;;6201199;28;20074;-59
2022/06/07 12:51:41;;;;;;;12.93;8.45;;;;;;;;;;6210300;28;20047;-60
2022/06/07 12:54:50;;;;;;;10.02;7.20;;;;;;;;;;6204811;28;20053;-60
2022/06/07 12:57:55;;;;;;;9.23;6.75;;;;;;;;;;6197049;28;20039;-59
2022/06/07 13:00:56;;;;;;;14.40;7.35;;;;;;;;;;6206858;28;20058;-60
2022/06/07 13:04:03;;;;;;;9.50;6.57;;;;;;;;;;6201122;28;20049;-60
2022/06/07 13:07:17;;;;;;;8.25;4.82;;;;;;;;;;6201100;28;20608;-60
2022/06/07 13:10:31;;;;;;;9.05;6.13;;;;;;;;;;6206949;28;20042;-60
2022/06/07 13:13:38;;;;;;;8.52;6.82;;;;;;;;;;6202598;28;20061;-59
2022/06/07 13:16:42;;;;;;;13.60;9.60;;;;;;;;;;6206060;28;20152;-60
2022/06/07 13:19:45;;;;;;;9.95;7.05;;;;;;;;;;6203212;28;20512;-60
2022/06/07 13:22:46;;;;;;;9.95;6.45;;;;;;;;;;6199662;28;20050;-59
2022/06/07 13:25:47;;;;;;;7.30;5.38;;;;;;;;;;6209775;28;20516;-59
2022/06/07 13:29:11;;;;;;;8.93;5.85;;;;;;;;;;6208318;28;20125;-60
2022/06/07 13:32:25;;;;;;;7.63;5.45;;;;;;;;;;6207182;28;20720;-59
2022/06/07 13:35:29;;;;;;;7.63;5.85;;;;;;;;;;6211818;28;20052;-60
2022/06/07 13:38:31;;;;;;;9.18;6.18;;;;;;;;;;6183730;28;20076;-60
2022/06/07 13:41:48;;;;;;;7.13;6.10;;;;;;;;;;6191599;28;20108;-60
2022/06/07 13:45:12;;;;;;;8.30;6.45;;;;;;;;;;6191482;28;20149;-60
2022/06/07 13:48:21;;;;;;;8.40;6.13;;;;;;;;;;6181287;28;20054;-60
2022/06/07 13:54:50;;;;;;;8.82;6.47;;;;;;;;;;6191079;28;20050;-60
2022/06/07 13:57:50;;;;;;;7.65;6.00;;;;;;;;;;6183830;28;20110;-60
2022/06/07 14:00:58;;;;;;;9.17;6.17;;;;;;;;;;6191560;28;20042;-60
2022/06/07 14:04:01;;;;;;;8.70;6.22;;;;;;;;;;6192614;28;20086;-59
2022/06/07 14:07:02;;;;;;;11.45;6.70;;;;;;;;;;6189501;28;20448;-59
2022/06/07 14:10:03;;;;;;;15.45;6.55;;;;;;;;;;6192823;28;20047;-59
2022/06/07 14:13:04;;;;;;;9.45;6.40;;;;;;;;;;6190489;28;20049;-59
2022/06/07 14:16:05;;;;;;;12.90;6.75;;;;;;;;;;6186004;28;20061;-60
2022/06/07 14:19:08;;;;;;;10.07;6.55;;;;;;;;;;6187513;28;20046;-59
2022/06/07 14:22:19;;;;;;;9.90;6.30;;;;;;;;;;6188686;28;20041;-60
2022/06/07 14:25:24;;;;;;;9.60;6.20;;;;;;;;;;6190779;28;20092;-60
2022/06/07 14:28:24;;;;;;;10.88;6.43;;;;;;;;;;6187360;28;20064;-60
2022/06/07 14:31:25;;;;;;;8.77;6.03;;;;;;;;;;6191152;28;20502;-60
2022/06/07 14:34:27;;;;;;;10.18;6.05;;;;;;;;;;6190383;28;20054;-60
2022/06/07 14:37:29;;;;;;;10.73;6.82;;;;;;;;;;6188950;28;20081;-60
2022/06/07 14:40:34;;;;;;;7.72;6.15;;;;;;;;;;6190712;28;20140;-60
2022/06/07 14:43:35;;;;;;;8.57;6.43;;;;;;;;;;6193648;28;20097;-60
2022/06/07 14:46:36;;;;;;;9.15;6.15;;;;;;;;;;6185301;28;20185;-60
2022/06/07 14:49:38;;;;;;;8.63;6.70;;;;;;;;;;6190515;28;20054;-60
2022/06/07 14:52:38;;;;;;;7.45;5.93;;;;;;;;;;6188436;28;21029;-60
2022/06/07 14:55:39;;;;;;;8.40;6.33;;;;;;;;;;6191133;28;20047;-60
2022/06/07 14:58:40;;;;;;;9.23;6.28;;;;;;;;;;6190723;28;20057;-60
2022/06/07 15:01:48;;;;;;;9.48;6.45;;;;;;;;;;6188139;28;20158;-60
2022/06/07 15:04:54;;;;;;;8.32;6.32;;;;;;;;;;6190051;28;20156;-59
2022/06/07 15:07:59;;;;;;;9.20;6.30;;;;;;;;;;6193849;28;20044;-60
2022/06/07 15:11:00;;;;;;;10.13;6.70;;;;;;;;;;6194935;28;20073;-59
2022/06/07 15:14:04;;;;;;;8.13;6.60;;;;;;;;;;6199235;28;20060;-59
2022/06/07 15:17:04;;;;;;;8.50;6.22;;;;;;;;;;6192098;28;20928;-59
2022/06/07 15:20:06;;;;;;;13.23;8.77;;;;;;;;;;6189812;28;20051;-59
2022/06/07 15:23:20;;;;;;;15.43;11.32;;;;;;;;;;6191579;28;20148;-59
2022/06/07 15:26:23;;;;;;;19.55;11.35;;;;;;;;;;6187957;28;20054;-59
2022/06/07 15:32:43;;;;;;;16.60;11.73;;;;;;;;;;6195120;28;20473;-58
2022/06/07 15:35:46;;;;;;;17.33;11.93;;;;;;;;;;6191748;28;21071;-59
2022/06/07 15:38:50;;;;;;;17.30;12.80;;;;;;;;;;6196218;28;20073;-60
2022/06/07 15:45:11;;;;;;;41.13;18.05;;;;;;;;;;6190341;28;20057;-58
2022/06/07 15:48:24;;;;;;;36.92;19.45;;;;;;;;;;6190975;28;20065;-59
2022/06/07 15:51:24;;;;;;;26.45;12.90;;;;;;;;;;6192269;28;20518;-59
2022/06/07 15:54:25;;;;;;;10.83;7.80;;;;;;;;;;6195971;28;20058;-59
2022/06/07 15:59:02;;;;;;;15.33;8.50;;;;;;;;;;6193257;28;20044;-59
2022/06/07 16:00:46;;;;;;;21.95;10.13;;;;;;;;;;6198051;28;20414;-59
2022/06/07 16:03:47;;;;;;;25.50;15.17;;;;;;;;;;6195254;28;20138;-59
2022/06/07 16:06:48;;;;;;;23.58;15.10;;;;;;;;;;6194898;28;20398;-59
2022/06/07 16:09:49;;;;;;;18.13;11.03;;;;;;;;;;6194623;28;20052;-59
2022/06/07 16:12:49;;;;;;;16.53;12.07;;;;;;;;;;6195763;28;20041;-59
2022/06/07 16:15:54;;;;;;;18.50;12.10;;;;;;;;;;6191193;28;20202;-59
2022/06/07 16:18:55;;;;;;;24.23;15.55;;;;;;;;;;6197270;28;20108;-58
2022/06/07 16:21:56;;;;;;;18.17;11.23;;;;;;;;;;6199125;28;20068;-59
2022/06/07 16:24:57;;;;;;;18.57;10.63;;;;;;;;;;6197121;28;20041;-59
2022/06/07 16:34:37;;;;;;;25.15;12.95;;;;;;;;;;6192897;28;20042;-59
2022/06/07 16:37:37;;;;;;;24.33;13.47;;;;;;;;;;6193538;28;20049;-58
2022/06/07 16:40:38;;;;;;;26.10;13.60;;;;;;;;;;6195175;28;20166;-59
2022/06/07 16:46:58;;;;;;;22.55;12.25;;;;;;;;;;6195531;28;20078;-59
2022/06/07 16:49:59;;;;;;;25.20;14.03;;;;;;;;;;6194385;28;20042;-59
2022/06/07 16:52:59;;;;;;;22.53;13.10;;;;;;;;;;6193247;28;20046;-58
2022/06/07 16:56:16;;;;;;;19.92;12.73;;;;;;;;;;6193157;28;20097;-60
2022/06/07 16:59:18;;;;;;;23.45;12.73;;;;;;;;;;6194892;28;20058;-59
2022/06/07 17:02:19;;;;;;;22.48;13.02;;;;;;;;;;6190112;28;20110;-59
2022/06/07 17:05:20;;;;;;;21.90;12.70;;;;;;;;;;6198308;28;20060;-59
2022/06/07 17:08:24;;;;;;;20.67;13.50;;;;;;;;;;6192465;28;20390;-59
2022/06/07 17:11:27;;;;;;;23.02;12.82;;;;;;;;;;6198418;28;20050;-59
2022/06/07 17:14:27;;;;;;;23.50;13.05;;;;;;;;;;6198692;28;20050;-59
2022/06/07 17:17:28;;;;;;;23.03;14.33;;;;;;;;;;6193959;28;20069;-59
2022/06/07 17:20:30;;;;;;;20.10;13.40;;;;;;;;;;6196366;28;20054;-59
2022/06/07 17:23:32;;;;;;;21.88;13.80;;;;;;;;;;6194281;28;20092;-59
2022/06/07 17:26:33;;;;;;;24.20;13.50;;;;;;;;;;6190851;28;20141;-60
2022/06/07 17:29:34;;;;;;;25.70;16.40;;;;;;;;;;6195285;28;20053;-59
2022/06/07 17:32:37;;;;;;;28.47;19.03;;;;;;;;;;6195564;28;20072;-60
2022/06/07 17:35:38;;;;;;;41.55;25.60;;;;;;;;;;6195079;28;20077;-58
2022/06/07 17:38:40;;;;;;;24.23;14.63;;;;;;;;;;6195622;28;20700;-60
2022/06/07 17:41:41;;;;;;;19.85;13.18;;;;;;;;;;6197444;28;20046;-60
2022/06/07 17:44:41;;;;;;;21.30;13.13;;;;;;;;;;6191895;28;20042;-59
2022/06/07 17:47:42;;;;;;;19.47;11.83;;;;;;;;;;6187380;28;20042;-59
2022/06/07 17:50:43;;;;;;;24.88;13.82;;;;;;;;;;6190190;28;20051;-58
2022/06/07 17:53:44;;;;;;;27.37;15.07;;;;;;;;;;6190053;28;20140;-58
2022/06/07 17:56:45;;;;;;;26.38;15.02;;;;;;;;;;6186637;28;20140;-58
2022/06/07 17:59:46;;;;;;;26.37;15.37;;;;;;;;;;6189244;28;20050;-59
2022/06/07 18:02:48;;;;;;;30.17;16.17;;;;;;;;;;6190294;28;20046;-59
2022/06/07 18:05:48;;;;;;;31.67;16.65;;;;;;;;;;6170250;28;20109;-59
2022/06/07 18:08:50;;;;;;;32.20;16.43;;;;;;;;;;6188314;28;20053;-59
2022/06/07 18:11:50;;;;;;;33.10;17.58;;;;;;;;;;6191019;28;20046;-58
2022/06/07 18:14:51;;;;;;;34.97;18.20;;;;;;;;;;6190244;28;20054;-59
2022/06/07 18:17:52;;;;;;;40.73;20.03;;;;;;;;;;6188446;28;20046;-57
2022/06/07 18:20:54;;;;;;;40.27;19.83;;;;;;;;;;6192223;28;20061;-59
2022/06/07 18:23:54;;;;;;;39.58;19.60;;;;;;;;;;6194460;28;20042;-58
2022/06/07 18:26:55;;;;;;;40.17;18.27;;;;;;;;;;6189955;28;20050;-58
2022/06/07 18:29:56;;;;;;;42.77;18.80;;;;;;;;;;6188984;28;20564;-57
2022/06/07 18:32:57;;;;;;;29.52;15.50;;;;;;;;;;6188682;28;20112;-55
2022/06/07 18:35:57;;;;;;;32.33;16.00;;;;;;;;;;6186089;28;20161;-56
2022/06/07 18:39:00;;;;;;;29.47;15.23;;;;;;;;;;6187713;28;20061;-57
2022/06/07 18:42:01;;;;;;;27.55;14.88;;;;;;;;;;6192369;28;20042;-58